Time;durP1;ratioP1;P1;durP2;ratioP2;P2;SDS_P1;SDS_P2;PMS_P1;PMS_P2;Temp;Humidity;BMP_temperature;BMP_pressure;BME280_temperature;BME280_humidity;BME280_pressure;Samples;Min_cycle;Max_cycle;Signal;HPM_P1;HPM_P2
2022/12/14 15:10:17;;;;;;;22.13;13.07;;;;;;;-1.46;100.00;100261.91;5293937;27;20427;-74
2022/12/14 15:13:00;;;;;;;19.33;12.23;;;;;;;-1.49;100.00;100261.97;5294918;28;20286;-72
2022/12/14 15:15:37;;;;;;;20.37;12.20;;;;;;;-1.46;100.00;100272.19;5294366;28;20282;-73
2022/12/14 15:18:23;;;;;;;19.77;12.10;;;;;;;-1.49;100.00;100264.56;5284492;28;20286;-73
2022/12/14 15:21:04;;;;;;;19.60;12.57;;;;;;;-1.47;100.00;100265.34;5294404;28;20328;-73
2022/12/14 15:23:37;;;;;;;21.70;12.67;;;;;;;-1.48;100.00;100262.81;5294328;28;20310;-78
2022/12/14 15:26:17;;;;;;;21.47;13.97;;;;;;;-1.44;100.00;100263.59;5294123;28;20278;-76
2022/12/14 15:28:53;;;;;;;21.83;12.67;;;;;;;-1.41;100.00;100266.94;5292265;28;20343;-76
2022/12/14 15:31:31;;;;;;;20.97;12.70;;;;;;;-1.40;100.00;100265.25;5292336;28;20321;-74
2022/12/14 15:34:02;;;;;;;24.27;13.23;;;;;;;-1.42;100.00;100274.69;5293321;28;20804;-77
2022/12/14 15:36:36;;;;;;;20.03;13.47;;;;;;;-1.42;99.86;100279.84;5293941;28;20319;-75
2022/12/14 15:39:28;;;;;;;21.75;12.38;;;;;;;-1.39;100.00;100283.19;5293430;28;20104;-76
2022/12/14 15:42:12;;;;;;;17.83;10.87;;;;;;;-1.40;100.00;100286.66;5293824;28;20104;-76
2022/12/14 15:44:55;;;;;;;21.07;12.30;;;;;;;-1.38;100.00;100284.88;5293257;28;20300;-77
2022/12/14 15:47:29;;;;;;;19.40;12.27;;;;;;;-1.48;99.71;100291.06;5289902;28;20278;-76
2022/12/14 15:50:31;;;;;;;17.67;12.13;;;;;;;-1.40;100.00;100289.22;5288612;28;20482;-76
2022/12/14 15:53:17;;;;;;;19.03;12.60;;;;;;;-1.50;100.00;100280.81;5293351;28;20021;-73
2022/12/14 15:55:52;;;;;;;22.47;13.00;;;;;;;-1.50;99.92;100285.94;5293439;28;20103;-75
2022/12/14 15:58:31;;;;;;;21.40;13.07;;;;;;;-1.46;99.73;100289.31;5292963;28;20082;-74
2022/12/14 16:01:12;;;;;;;23.43;14.03;;;;;;;-1.50;99.59;100291.09;5293502;28;20043;-73
2022/12/14 16:03:47;;;;;;;28.53;13.87;;;;;;;-1.56;98.92;100291.22;5291887;28;20032;-73
2022/12/14 16:06:21;;;;;;;22.80;13.67;;;;;;;-1.49;99.14;100307.34;5292972;28;20081;-73
2022/12/14 16:09:04;;;;;;;22.77;13.73;;;;;;;-1.50;98.98;100306.50;5292444;28;20127;-74
2022/12/14 16:11:39;;;;;;;20.23;13.67;;;;;;;-1.50;99.26;100306.50;5293360;28;20021;-74
2022/12/14 16:14:21;;;;;;;22.90;13.50;;;;;;;-1.52;99.06;100308.25;5291724;28;20362;-74
2022/12/14 16:16:52;;;;;;;19.70;14.17;;;;;;;-1.56;99.21;100303.19;5291536;28;20059;-74
2022/12/14 16:19:33;;;;;;;20.23;13.97;;;;;;;-1.56;98.77;100305.78;5289016;28;20052;-73
2022/12/14 16:22:23;;;;;;;21.97;14.53;;;;;;;-1.54;99.54;100310.03;5277506;28;20032;-73
2022/12/14 16:24:58;;;;;;;19.50;13.70;;;;;;;-1.59;99.12;100320.34;5277922;28;20036;-73
2022/12/14 16:27:32;;;;;;;25.75;14.20;;;;;;;-1.71;98.88;100311.16;5277032;28;20043;-73
2022/12/14 16:30:21;;;;;;;21.90;14.23;;;;;;;-1.61;99.45;100319.56;5277454;28;20031;-72
2022/12/14 16:33:12;;;;;;;21.90;14.50;;;;;;;-1.73;99.22;100315.47;5276105;28;20509;-73
2022/12/14 16:35:45;;;;;;;26.33;14.60;;;;;;;-1.74;98.97;100326.63;5276734;28;20283;-72
2022/12/14 16:38:17;;;;;;;24.10;13.93;;;;;;;-1.68;99.06;100328.25;5276879;28;20108;-71
2022/12/14 16:40:56;;;;;;;20.90;14.37;;;;;;;-1.79;99.68;100315.56;5279338;28;20446;-71
2022/12/14 16:43:30;;;;;;;23.87;14.87;;;;;;;-1.71;99.45;100330.88;5274553;28;20025;-71
2022/12/14 16:46:01;;;;;;;22.88;16.20;;;;;;;-1.75;99.11;100327.50;5278266;28;20067;-72
2022/12/14 16:48:36;;;;;;;26.80;16.07;;;;;;;-1.79;98.92;100323.28;5278633;28;20495;-70
2022/12/14 16:51:20;;;;;;;21.85;14.85;;;;;;;-1.77;99.15;100329.25;5277449;28;20024;-70
2022/12/14 16:53:56;;;;;;;29.93;17.17;;;;;;;-1.81;99.25;100322.44;5277278;28;20483;-74
2022/12/14 16:56:31;;;;;;;23.57;15.77;;;;;;;-1.88;98.99;100331.97;5278325;28;20279;-72
2022/12/14 16:59:05;;;;;;;27.47;15.73;;;;;;;-1.87;98.97;100337.97;5278125;28;20394;-73
2022/12/14 17:01:40;;;;;;;26.98;14.55;;;;;;;-1.85;99.14;100341.38;5277018;28;20035;-72
2022/12/14 17:04:13;;;;;;;26.27;15.63;;;;;;;-1.91;99.17;100341.44;5277424;28;20031;-72
2022/12/14 17:06:49;;;;;;;22.83;15.90;;;;;;;-1.93;98.76;100350.88;5277691;28;20033;-72
2022/12/14 17:09:23;;;;;;;28.10;16.97;;;;;;;-2.10;99.37;100331.47;5276988;28;20307;-71
2022/12/14 17:11:57;;;;;;;25.35;15.15;;;;;;;-1.92;99.29;100355.16;5276621;28;20070;-73
2022/12/14 17:14:29;;;;;;;28.38;16.25;;;;;;;-2.00;99.19;100356.13;5276391;28;20032;-72
2022/12/14 17:17:02;;;;;;;27.97;16.70;;;;;;;-2.00;99.22;100345.84;5276770;28;20067;-73
2022/12/14 17:19:37;;;;;;;26.97;17.33;;;;;;;-2.04;99.03;100346.75;5273409;28;20033;-73
2022/12/14 17:22:21;;;;;;;26.20;15.37;;;;;;;-2.00;99.08;100350.13;5277405;28;20062;-73
2022/12/14 17:24:53;;;;;;;25.33;16.87;;;;;;;-2.05;99.28;100355.34;5275379;28;20654;-72
2022/12/14 17:27:27;;;;;;;29.90;17.57;;;;;;;-2.05;99.23;100367.31;5278186;28;20289;-74
2022/12/14 17:29:58;;;;;;;25.95;16.75;;;;;;;-2.05;99.23;100360.47;5276810;28;20052;-73
2022/12/14 17:32:31;;;;;;;31.33;20.33;;;;;;;-2.13;98.55;100352.06;5264645;28;20572;-73
2022/12/14 17:35:02;;;;;;;28.70;17.70;;;;;;;-2.20;98.69;100341.88;5278302;28;20394;-74
2022/12/14 17:37:33;;;;;;;27.27;18.10;;;;;;;-2.09;98.79;100351.13;5274589;28;20282;-73
2022/12/14 17:40:06;;;;;;;29.53;19.87;;;;;;;-2.14;98.57;100356.31;5264180;28;20029;-73
2022/12/14 17:42:39;;;;;;;46.43;29.37;;;;;;;-2.14;98.93;100352.91;5268707;28;20029;-83
2022/12/14 17:45:23;;;;;;;52.80;31.20;;;;;;;-2.22;99.31;100351.31;5266953;28;20377;-85
2022/12/14 17:47:55;;;;;;;47.50;29.73;;;;;;;-2.19;99.43;100358.97;5267409;28;20286;-73
2022/12/14 17:50:27;;;;;;;41.00;27.53;;;;;;;-2.19;99.70;100361.53;5267950;28;20283;-79
2022/12/14 17:52:59;;;;;;;43.00;26.53;;;;;;;-2.25;98.92;100359.03;5267795;28;20285;-83
2022/12/14 17:55:31;;;;;;;34.03;21.57;;;;;;;-2.28;99.15;100369.34;5268353;28;20023;-81
2022/12/14 17:58:02;;;;;;;37.33;22.37;;;;;;;-2.26;99.22;100362.50;5269752;28;20048;-81
2022/12/14 18:03:24;;;;;;;28.90;20.70;;;;;;;-2.32;99.03;100362.56;5266209;28;20029;-73
2022/12/14 18:05:57;;;;;;;32.70;19.87;;;;;;;-2.38;98.54;100357.53;5267331;28;20892;-78
2022/12/14 18:08:28;;;;;;;31.77;20.60;;;;;;;-2.38;98.47;100362.66;5267573;28;20052;-81
2022/12/14 18:11:02;;;;;;;29.73;19.30;;;;;;;-2.34;98.79;100372.03;5270657;28;20344;-83
2022/12/14 18:13:34;;;;;;;29.30;19.02;;;;;;;-2.47;98.42;100364.47;5270548;28;20024;-75
2022/12/14 18:16:05;;;;;;;32.93;19.53;;;;;;;-2.46;98.42;100365.34;5268512;28;20039;-78
2022/12/14 18:18:37;;;;;;;28.73;19.10;;;;;;;-2.47;98.59;100374.75;5266705;28;20050;-72
2022/12/14 18:21:19;;;;;;;30.50;19.93;;;;;;;-2.43;98.81;100371.25;5266277;28;20487;-78
2022/12/14 18:23:51;;;;;;;30.17;18.63;;;;;;;-2.54;98.69;100360.31;5266974;28;20060;-84
2022/12/14 18:26:23;;;;;;;26.53;18.60;;;;;;;-2.61;98.82;100348.41;5266453;28;20363;-76
2022/12/14 18:28:55;;;;;;;33.37;19.80;;;;;;;-2.59;98.73;100368.06;5266232;28;20298;-83
2022/12/14 18:31:32;;;;;;;32.23;20.20;;;;;;;-2.63;99.40;100357.84;5267576;28;20033;-89
2022/12/14 18:34:03;;;;;;;31.13;21.07;;;;;;;-2.59;98.84;100372.31;5266357;28;20286;-84
2022/12/14 18:36:35;;;;;;;30.53;18.53;;;;;;;-2.62;98.97;100370.66;5268800;28;20286;-83
2022/12/14 18:39:06;;;;;;;33.83;20.97;;;;;;;-2.64;99.37;100381.78;5266637;28;20051;-75
2022/12/14 18:41:37;;;;;;;29.83;19.43;;;;;;;-2.69;99.29;100377.56;5268222;28;20071;-77
2022/12/14 18:44:09;;;;;;;32.37;20.07;;;;;;;-2.74;99.22;100366.50;5266745;28;20036;-79
2022/12/14 18:46:40;;;;;;;28.63;19.10;;;;;;;-2.68;99.57;100371.59;5265874;28;20035;-86
2022/12/14 18:49:12;;;;;;;32.13;19.70;;;;;;;-2.68;99.11;100383.53;5266970;28;20094;-76
2022/12/14 18:51:43;;;;;;;40.27;20.80;;;;;;;-2.68;98.97;100378.41;5266937;28;20056;-77
2022/12/14 18:54:14;;;;;;;30.57;19.47;;;;;;;-2.71;99.44;100376.75;5267147;28;20029;-76
2022/12/14 18:56:45;;;;;;;27.10;17.73;;;;;;;-2.77;98.83;100378.50;5269577;28;20033;-74
2022/12/14 18:59:17;;;;;;;27.57;19.40;;;;;;;-2.77;99.22;100381.09;5266034;28;20162;-75
2022/12/14 19:01:48;;;;;;;29.60;18.03;;;;;;;-2.85;99.37;100370.94;5266010;28;20041;-75
2022/12/14 19:04:21;;;;;;;29.90;17.73;;;;;;;-2.83;99.39;100387.97;5264138;28;20033;-79
2022/12/14 19:06:52;;;;;;;32.10;18.17;;;;;;;-2.84;98.87;100390.56;5272396;28;20033;-78
2022/12/14 19:09:23;;;;;;;29.37;18.77;;;;;;;-2.97;99.51;100377.91;5272337;28;20319;-82
2022/12/14 19:11:55;;;;;;;27.23;17.60;;;;;;;-2.94;99.38;100392.38;5267111;28;20489;-80
2022/12/14 19:14:26;;;;;;;27.50;18.40;;;;;;;-2.93;98.77;100402.63;5265839;28;20028;-74
2022/12/14 19:16:57;;;;;;;28.00;17.73;;;;;;;-2.95;99.72;100404.34;5267558;28;20100;-82
2022/12/14 19:19:28;;;;;;;30.70;19.70;;;;;;;-3.01;99.42;100394.16;5270937;28;20040;-88
2022/12/14 19:22:00;;;;;;;28.43;16.97;;;;;;;-2.98;99.09;100394.13;5265736;28;20123;-83
2022/12/14 19:24:31;;;;;;;27.90;18.13;;;;;;;-3.04;98.83;100394.22;5266004;28;20037;-87
2022/12/14 19:27:03;;;;;;;24.80;15.50;;;;;;;-3.05;99.48;100388.22;5267687;28;20028;-78
2022/12/14 19:29:35;;;;;;;27.70;18.03;;;;;;;-3.02;99.71;100387.38;5269299;28;20048;-72
2022/12/14 19:32:07;;;;;;;53.77;30.43;;;;;;;-3.04;100.00;100399.34;5265499;28;20044;-77
2022/12/14 19:34:38;;;;;;;43.87;26.73;;;;;;;-3.05;99.80;100392.50;5267198;28;20290;-74
2022/12/14 19:37:09;;;;;;;48.40;30.43;;;;;;;-3.07;99.82;100405.31;5266513;28;20090;-75
2022/12/14 19:39:40;;;;;;;44.77;27.27;;;;;;;-3.10;99.46;100404.50;5266357;28;20045;-77
2022/12/14 19:42:12;;;;;;;40.00;25.20;;;;;;;-3.26;99.35;100378.22;5267003;28;20024;-76
2022/12/14 19:44:44;;;;;;;36.00;22.03;;;;;;;-3.22;98.82;100403.78;5266547;28;20039;-71
2022/12/14 19:47:16;;;;;;;30.30;19.03;;;;;;;-3.20;99.15;100414.88;5265783;28;20036;-75
2022/12/14 19:49:47;;;;;;;26.97;18.57;;;;;;;-3.26;98.65;100420.03;5268146;28;20044;-71
2022/12/14 19:52:18;;;;;;;28.20;17.73;;;;;;;-3.30;98.90;100418.38;5266421;28;20070;-71
2022/12/14 19:54:50;;;;;;;29.77;19.87;;;;;;;-3.26;99.84;100425.16;5263423;28;20060;-71
2022/12/14 19:57:21;;;;;;;29.60;18.77;;;;;;;-3.23;100.00;100425.09;5268363;28;20058;-71
2022/12/14 19:59:52;;;;;;;30.63;19.17;;;;;;;-3.27;99.84;100418.34;5270201;28;20037;-71
2022/12/14 20:02:24;;;;;;;27.93;18.60;;;;;;;-3.37;99.99;100412.47;5267957;28;20126;-72
2022/12/14 20:04:55;;;;;;;30.83;18.87;;;;;;;-3.32;99.66;100436.31;5270662;28;20051;-72
2022/12/14 20:07:27;;;;;;;31.83;18.43;;;;;;;-3.39;99.66;100421.84;5270380;28;20024;-75
2022/12/14 20:09:58;;;;;;;28.63;18.60;;;;;;;-3.36;99.79;100426.94;5267746;28;20056;-73
2022/12/14 20:12:33;;;;;;;30.60;18.13;;;;;;;-3.43;99.41;100421.03;5270098;28;20040;-72
2022/12/14 20:15:04;;;;;;;33.42;20.98;;;;;;;-3.46;100.00;100417.66;5268457;28;20078;-73
2022/12/14 20:17:36;;;;;;;40.80;19.43;;;;;;;-3.47;99.52;100421.09;5269409;28;20028;-71
2022/12/14 20:20:08;;;;;;;94.30;54.03;;;;;;;-3.66;100.00;100423.75;5268577;28;20529;-75
2022/12/14 20:22:39;;;;;;;65.97;37.20;;;;;;;-3.47;100.00;100429.59;5266978;28;20098;-79
2022/12/14 20:25:10;;;;;;;39.47;23.90;;;;;;;-3.47;100.00;100442.41;5269777;28;20479;-78
2022/12/14 20:27:42;;;;;;;33.60;19.77;;;;;;;-3.48;100.00;100444.97;5269753;28;20028;-76
2022/12/14 20:30:13;;;;;;;39.27;20.43;;;;;;;-3.51;100.00;100443.31;5271474;28;20099;-76
2022/12/14 20:32:44;;;;;;;32.27;18.37;;;;;;;-3.50;100.00;100450.09;5268801;28;20040;-74
2022/12/14 20:35:17;;;;;;;26.80;16.50;;;;;;;-3.53;100.00;100445.03;5270558;28;20060;-73
2022/12/14 20:37:52;;;;;;;25.17;16.33;;;;;;;-3.52;100.00;100452.69;5267714;28;20224;-72
2022/12/14 20:40:23;;;;;;;30.48;16.17;;;;;;;-3.57;99.96;100458.69;5269716;28;20287;-72
2022/12/14 20:42:54;;;;;;;26.90;15.53;;;;;;;-3.70;99.64;100445.97;5268421;28;20028;-74
2022/12/14 20:45:25;;;;;;;31.90;18.33;;;;;;;-3.58;100.00;100469.81;5269250;28;20020;-74
2022/12/14 20:47:57;;;;;;;29.53;15.50;;;;;;;-3.56;100.00;100478.34;5266941;28;20016;-72
2022/12/14 20:50:28;;;;;;;24.53;15.90;;;;;;;-3.67;99.85;100466.44;5270013;28;20029;-73
2022/12/14 20:53:00;;;;;;;22.67;15.33;;;;;;;-3.63;99.88;100468.97;5268519;28;20098;-78
2022/12/14 20:55:32;;;;;;;25.53;16.13;;;;;;;-3.65;99.96;100480.06;5270026;28;20597;-75
2022/12/14 20:58:04;;;;;;;27.20;15.03;;;;;;;-3.70;100.00;100461.31;5267823;28;20032;-78
2022/12/14 21:00:35;;;;;;;28.77;15.00;;;;;;;-3.67;99.99;100466.44;5268419;28;20279;-76
2022/12/14 21:03:06;;;;;;;25.17;16.87;;;;;;;-3.66;100.00;100468.13;5269190;28;20234;-74
2022/12/14 21:05:40;;;;;;;28.33;16.63;;;;;;;-3.69;100.00;100470.72;5269196;28;20036;-75
2022/12/14 21:08:14;;;;;;;23.77;16.50;;;;;;;-3.65;100.00;100485.19;5267092;28;20037;-74
2022/12/14 21:10:45;;;;;;;24.38;16.00;;;;;;;-3.62;100.00;100484.34;5269256;28;20802;-73
2022/12/14 21:13:16;;;;;;;32.23;15.80;;;;;;;-3.69;100.00;100475.84;5268394;28;20115;-75
2022/12/14 21:15:48;;;;;;;34.70;17.93;;;;;;;-3.69;100.00;100491.22;5268584;28;20074;-71
2022/12/14 21:18:19;;;;;;;30.70;17.33;;;;;;;-3.72;100.00;100488.66;5268307;28;20025;-72
2022/12/14 21:20:50;;;;;;;27.33;17.53;;;;;;;-3.72;100.00;100498.91;5268066;28;20029;-74
2022/12/14 21:23:21;;;;;;;29.70;18.93;;;;;;;-3.75;100.00;100509.13;5268368;28;20037;-76
2022/12/14 21:25:53;;;;;;;29.40;17.33;;;;;;;-3.84;99.89;100488.75;5269557;28;20103;-76
2022/12/14 21:28:24;;;;;;;28.67;17.07;;;;;;;-3.85;100.00;100485.31;5267935;28;20032;-74
2022/12/14 21:31:06;;;;;;;25.37;16.73;;;;;;;-3.80;100.00;100480.16;5266044;28;20028;-78
2022/12/14 21:33:37;;;;;;;25.03;15.87;;;;;;;-3.77;100.00;100505.75;5268587;28;20423;-75
2022/12/14 21:36:10;;;;;;;25.10;15.10;;;;;;;-3.83;99.99;100493.84;5266185;28;20341;-75
2022/12/14 21:38:41;;;;;;;26.90;15.83;;;;;;;-3.83;100.00;100504.09;5267277;28;20036;-73
2022/12/14 21:44:03;;;;;;;28.83;14.33;;;;;;;-3.83;100.00;100498.09;5267935;28;20040;-76
2022/12/14 21:46:35;;;;;;;26.70;15.23;;;;;;;-3.91;100.00;100511.78;5268240;28;20283;-76
2022/12/14 21:49:07;;;;;;;22.00;14.93;;;;;;;-3.92;100.00;100507.53;5268108;28;20110;-78
2022/12/14 21:51:39;;;;;;;24.33;16.40;;;;;;;-3.81;100.00;100521.97;5266719;28;20303;-74
2022/12/14 21:54:14;;;;;;;23.50;16.03;;;;;;;-3.90;100.00;100516.06;5267812;28;20086;-74
2022/12/14 21:59:38;;;;;;;23.33;15.47;;;;;;;-3.92;100.00;100517.78;5268528;28;20275;-76
2022/12/14 22:02:14;;;;;;;25.58;16.48;;;;;;;-3.92;100.00;100522.88;5265051;28;20393;-77
2022/12/14 22:04:46;;;;;;;31.03;18.10;;;;;;;-3.92;100.00;100525.44;5265633;28;20475;-78
2022/12/14 22:07:19;;;;;;;29.30;17.80;;;;;;;-3.95;100.00;100529.72;5267001;28;20279;-72
2022/12/14 22:09:50;;;;;;;30.30;18.03;;;;;;;-3.93;100.00;100528.88;5266991;28;20314;-77
2022/12/14 22:12:22;;;;;;;28.10;17.67;;;;;;;-4.03;100.00;100520.38;5266823;28;20406;-75
2022/12/14 22:14:53;;;;;;;32.77;18.17;;;;;;;-3.97;100.00;100529.75;5266769;28;20028;-74
2022/12/14 22:17:24;;;;;;;33.63;20.23;;;;;;;-3.98;100.00;100527.19;5264262;28;20024;-76
2022/12/14 22:19:56;;;;;;;31.13;20.77;;;;;;;-3.97;100.00;100534.84;5269910;28;20035;-74
2022/12/14 22:22:27;;;;;;;29.03;19.43;;;;;;;-4.08;100.00;100536.59;5271052;28;20020;-73
2022/12/14 22:24:58;;;;;;;27.73;18.87;;;;;;;-4.09;100.00;100535.75;5270992;28;21197;-74
2022/12/14 22:27:30;;;;;;;30.93;18.63;;;;;;;-4.17;100.00;100522.97;5270702;28;20101;-76
